Aérodrome :
LOGIN :

S'inscrire | Disclaimer

   EN    FR    IT 

 










Légende :    VFR   VFR Marginal   IFR   IFR Intensif   IFR Très Intensif
Visi : 
Plafond : 
>= 8 km
>= 3000ft
5 à 8 km
1000 à 3000 ft
1500m à 5 km
500 à 1000 ft
800 à 1500m
200 à 500 ft
< 800m
< 200 ft
Symboles :   Orages  Brouillard  Fortes neiges  Fortes précipitations  Vent > 20 kt
SIGMETs :   Divers  Orages  Givrage  Turbulence  Onde Orograph.  Cendres Volcan.







- Altitude de l'aérodrome : 284 ft


EGUW - RAF Wattisham

DERNIER METAR :
  • 221150Z 23009KT 9999 OVC011 09/07 Q1028 GRN BECMG BKN015 WHT

METARs EXPIRÉS :
  • 221050Z 21009KT 9999 OVC011 09/07 Q1028 GRN BECMG BKN015 WHT
  • 220950Z 22008KT 9999 OVC010 08/07 Q1028 GRN NOSIG

TAF TAF EGUW
Valide du 22 à 12h jusqu'au 22 à 19h UTC


221015Z 2212/2219 19008KT 9999 BKN012
BECMG 2212/2214 BKN018
PROB30
TEMPO 2214/2219 FEW018
Pas de NOTAMs connus pour ce terrain.
1 SIGMET publié pour la FIR London (EGTT) :
 
Onde orographique forte
EGTT SIGMET 01 VALID 221100/221500 EGRR
EGTT LONDON FIR SEV MTW FCST WI N5345 W00044 - N5224 W00359 - N5318 W00402 - N5350 W00301 - N5500 W00331 - N5500 W00103 - N5345 W00044 FL030/150 STNR NC=



MET'MAP, la Météo Aéronautique d'un coup d'oeil ! - Copyright ORBIFLY Décembre 2007 - Disclaimer

ORBIFLY MET'MAP TEAM :

Programmation & Développement : Alexandra Zaïnal
Conception & Développement : Baudouin d'Aumeries
Co-Programmation & Développement : Marc-Olivier Méhu
Soutien technique & logistique : Manuel Goepfert

Contact : metmap@orbifly.com




SOURCES & CREDITS :

   NOAA